KTMA/TMA METAR and TAF weather

Enter ICAO airport designator
Station Type Date Time Source
KTMA METAR 2020/09/23 18:15 UTC NOAA

KTMA 231815Z AUTO 13005KT 10SM SCT040 26/17 A3006 RMK AO2 T02560165


Station Type Date Time Source
KTMA Decoded METAR 2020/09/23 18:15 UTC NOAA

Station name not available
Sep 23, 2020 - 02:15 PM EDT / 2020.09.23 1815 UTC
Wind: from the SE (130 degrees) at 6 MPH (5 KT):0
Visibility: 10 mile(s):0
Sky conditions: partly cloudy
Temperature: 78.1 F (25.6 C)
Dew Point: 61.7 F (16.5 C)
Relative Humidity: 57%
Pressure (altimeter): 30.06 in. Hg (1017 hPa)
ob: KTMA 231815Z AUTO 13005KT 10SM SCT040 26/17 A3006 RMK AO2 T02560165
cycle: 18

Station Type Date Time Source
KTMA TAF UTC NOAA

Error!

Example: see airport list